Time;durP1;ratioP1;P1;durP2;ratioP2;P2;SDS_P1;SDS_P2;PMS_P1;PMS_P2;Temp;Humidity;BMP_temperature;BMP_pressure;BME280_temperature;BME280_humidity;BME280_pressure;Samples;Min_cycle;Max_cycle;Signal;HPM_P1;HPM_P2
2021/04/14 00:01:20;;;;;;;16.92;2.85;;;2.00;99.90;;;;;;4992783;28;20544;-81
2021/04/14 00:03:46;;;;;;;22.38;4.63;;;2.00;99.90;;;;;;4991888;28;20026;-80
2021/04/14 00:06:12;;;;;;;17.85;2.70;;;2.10;99.90;;;;;;4981209;28;20499;-80
2021/04/14 00:08:38;;;;;;;29.02;2.85;;;2.00;99.90;;;;;;4973136;28;20023;-81
2021/04/14 00:11:06;;;;;;;21.20;3.13;;;1.90;99.90;;;;;;4985670;28;20045;-80
2021/04/14 00:13:41;;;;;;;29.25;3.15;;;1.90;99.90;;;;;;4992345;28;20026;-80
2021/04/14 00:16:08;;;;;;;22.35;2.53;;;1.90;99.90;;;;;;4991955;28;20058;-80
2021/04/14 00:18:33;;;;;;;21.55;3.28;;;1.80;99.90;;;;;;4991010;28;20038;-81
2021/04/14 00:20:59;;;;;;;20.60;2.97;;;1.80;99.90;;;;;;5007434;28;20069;-81
2021/04/14 00:23:25;;;;;;;29.25;3.17;;;1.80;99.90;;;;;;4991033;28;20037;-80
2021/04/14 00:25:51;;;;;;;22.33;3.67;;;1.70;99.90;;;;;;4980528;28;20407;-80
2021/04/14 00:28:21;;;;;;;29.33;4.85;;;1.60;99.90;;;;;;4971755;28;20122;-80
2021/04/14 00:30:47;;;;;;;21.50;3.63;;;1.60;99.90;;;;;;4971674;28;20030;-81
2021/04/14 00:33:12;;;;;;;14.80;2.63;;;1.60;99.90;;;;;;4972805;28;20034;-80
2021/04/14 00:35:38;;;;;;;17.52;2.47;;;1.60;99.90;;;;;;4974344;28;20031;-81
2021/04/14 00:38:06;;;;;;;15.20;2.10;;;1.60;99.90;;;;;;4972755;28;20487;-80
2021/04/14 00:40:37;;;;;;;19.00;2.30;;;1.70;99.90;;;;;;4979561;28;20490;-81
2021/04/14 00:43:11;;;;;;;10.45;2.45;;;1.60;99.90;;;;;;4991986;28;20034;-80
2021/04/14 00:45:36;;;;;;;;;;;1.80;99.90;;;;;;4988070;28;20038;-81
2021/04/14 00:48:02;;;;;;;35.40;2.63;;;1.80;99.90;;;;;;4972796;28;20326;-81
2021/04/14 00:50:27;;;;;;;19.10;3.22;;;2.00;99.90;;;;;;4990220;28;20568;-80
2021/04/14 00:52:54;;;;;;;14.77;3.38;;;2.10;99.90;;;;;;4992063;28;20056;-79
2021/04/14 00:55:28;;;;;;;21.15;4.25;;;2.30;99.90;;;;;;4991180;28;20105;-82
2021/04/14 00:57:54;;;;;;;9.38;2.33;;;2.30;99.90;;;;;;4989918;28;20034;-80
2021/04/14 01:00:35;;;;;;;12.90;2.40;;;2.20;99.90;;;;;;5007069;28;20018;-81
2021/04/14 01:03:02;;;;;;;24.10;2.88;;;2.20;99.90;;;;;;4991921;28;20360;-81
2021/04/14 01:05:29;;;;;;;23.65;2.60;;;2.10;99.90;;;;;;4985762;28;20065;-82
2021/04/14 01:07:55;;;;;;;25.00;2.40;;;2.10;99.90;;;;;;4971239;28;20030;-82
2021/04/14 01:10:23;;;;;;;12.43;2.47;;;2.00;99.90;;;;;;4977955;28;20022;-81
2021/04/14 01:12:50;;;;;;;17.88;3.08;;;2.00;99.90;;;;;;4990309;28;20047;-81
2021/04/14 01:15:23;;;;;;;14.45;1.95;;;2.00;99.90;;;;;;4990949;28;20034;-82
2021/04/14 01:17:48;;;;;;;15.25;2.42;;;2.00;99.90;;;;;;4990526;28;20073;-82
2021/04/14 01:20:15;;;;;;;12.27;1.83;;;1.90;99.90;;;;;;4974754;28;20062;-81
2021/04/14 01:22:41;;;;;;;17.02;2.25;;;1.80;99.90;;;;;;4972398;28;20030;-82
2021/04/14 01:25:09;;;;;;;26.00;3.05;;;1.80;99.90;;;;;;4975624;28;20023;-82
2021/04/14 01:27:34;;;;;;;21.35;2.40;;;1.80;99.90;;;;;;4991450;28;20042;-82
2021/04/14 01:30:01;;;;;;;17.92;2.50;;;1.70;99.90;;;;;;4990518;28;20470;-82
2021/04/14 01:32:29;;;;;;;15.35;2.08;;;1.70;99.90;;;;;;4990127;28;20109;-82
2021/04/14 01:34:54;;;;;;;15.13;2.42;;;1.80;99.90;;;;;;5006138;28;20027;-82
2021/04/14 01:37:20;;;;;;;12.60;3.35;;;1.80;99.90;;;;;;4991391;28;20391;-82
2021/04/14 01:39:45;;;;;;;15.80;2.38;;;1.80;99.90;;;;;;4991299;28;20171;-82
2021/04/14 01:42:11;;;;;;;15.80;2.17;;;1.80;99.90;;;;;;4991399;28;20041;-81
2021/04/14 01:44:37;;;;;;;17.92;2.92;;;1.80;99.90;;;;;;4990946;28;20026;-81
2021/04/14 01:47:02;;;;;;;17.30;1.75;;;1.70;99.90;;;;;;5006696;28;20150;-82
2021/04/14 01:49:28;;;;;;;14.77;2.55;;;1.70;99.90;;;;;;4991596;28;20019;-82
2021/04/14 01:51:53;;;;;;;12.50;2.50;;;1.60;99.90;;;;;;4974489;28;20058;-82
2021/04/14 01:54:19;;;;;;;18.92;2.35;;;1.70;99.90;;;;;;4973152;28;20034;-82
2021/04/14 01:56:44;;;;;;;18.60;2.53;;;1.70;99.90;;;;;;4993382;28;20748;-82
2021/04/14 01:59:11;;;;;;;9.48;2.30;;;1.60;99.90;;;;;;5009759;28;20479;-81
2021/04/14 02:01:37;;;;;;;15.52;2.53;;;1.60;99.90;;;;;;4995048;28;20030;-82
2021/04/14 02:04:03;;;;;;;17.98;2.13;;;1.70;99.90;;;;;;4994279;28;20395;-82
2021/04/14 02:06:28;;;;;;;16.95;2.25;;;1.80;99.90;;;;;;5009738;28;20497;-81
2021/04/14 02:08:54;;;;;;;27.05;2.88;;;1.90;99.90;;;;;;4994787;28;20109;-81
2021/04/14 02:11:20;;;;;;;13.07;2.17;;;2.10;99.90;;;;;;5008079;28;20034;-81
2021/04/14 02:13:45;;;;;;;10.25;2.40;;;2.20;99.90;;;;;;4993824;28;20030;-81
2021/04/14 02:16:14;;;;;;;14.00;2.30;;;2.20;99.90;;;;;;4994689;28;20084;-82
2021/04/14 02:18:40;;;;;;;22.98;3.08;;;2.30;99.90;;;;;;4994495;28;20061;-81
2021/04/14 02:21:06;;;;;;;15.48;2.25;;;2.40;99.90;;;;;;4994088;28;20058;-82
2021/04/14 02:23:35;;;;;;;8.77;2.20;;;2.40;99.90;;;;;;5009477;28;20058;-82
2021/04/14 02:26:04;;;;;;;15.20;2.05;;;2.40;99.90;;;;;;4980058;28;20038;-82
2021/04/14 02:28:30;;;;;;;15.43;2.28;;;2.30;99.90;;;;;;4990156;28;20113;-82
2021/04/14 02:30:56;;;;;;;14.88;1.77;;;2.30;99.90;;;;;;4992619;28;20098;-82
2021/04/14 02:33:23;;;;;;;19.10;2.65;;;2.20;99.90;;;;;;4994352;28;20022;-82
2021/04/14 02:35:50;;;;;;;15.95;2.80;;;2.10;99.90;;;;;;4993388;28;20034;-81
2021/04/14 02:38:16;;;;;;;16.60;2.90;;;2.10;99.90;;;;;;4989378;28;20034;-82
2021/04/14 02:40:42;;;;;;;9.52;1.65;;;2.10;99.90;;;;;;4984575;28;20038;-82
2021/04/14 02:43:08;;;;;;;18.05;2.10;;;2.00;99.90;;;;;;4993747;28;20023;-82
2021/04/14 02:45:35;;;;;;;10.85;1.88;;;2.00;99.90;;;;;;4993378;28;20030;-82
2021/04/14 02:48:02;;;;;;;15.93;1.77;;;2.00;99.90;;;;;;4986499;28;20105;-82
2021/04/14 02:50:28;;;;;;;15.65;1.77;;;2.00;99.90;;;;;;4974500;28;20030;-82
2021/04/14 02:52:54;;;;;;;10.98;2.00;;;2.10;99.90;;;;;;4974396;28;20074;-82
2021/04/14 02:55:21;;;;;;;10.73;2.30;;;2.10;99.90;;;;;;4979293;28;20034;-82
2021/04/14 02:57:47;;;;;;;8.20;1.58;;;2.20;99.90;;;;;;4993827;28;20041;-81
2021/04/14 03:00:14;;;;;;;16.85;1.92;;;2.20;99.90;;;;;;4993978;28;20026;-82
2021/04/14 03:02:40;;;;;;;11.38;1.98;;;2.10;99.90;;;;;;4993769;28;20037;-82
2021/04/14 03:05:09;;;;;;;17.10;1.92;;;2.00;99.90;;;;;;4992346;28;20030;-82
2021/04/14 03:07:34;;;;;;;11.38;2.17;;;1.90;99.90;;;;;;4985876;28;20042;-82
2021/04/14 03:10:00;;;;;;;11.82;2.08;;;1.80;99.90;;;;;;4976764;28;20406;-83
2021/04/14 03:12:26;;;;;;;13.65;1.63;;;1.80;99.90;;;;;;5008693;28;20054;-82
2021/04/14 03:14:52;;;;;;;18.45;2.50;;;1.70;99.90;;;;;;4992958;28;20033;-82
2021/04/14 03:17:17;;;;;;;9.95;2.65;;;1.70;99.90;;;;;;4992835;28;20037;-81
2021/04/14 03:19:43;;;;;;;19.60;2.20;;;1.70;99.90;;;;;;4992189;28;20113;-82
2021/04/14 03:22:09;;;;;;;9.88;1.65;;;1.60;99.90;;;;;;5008131;28;20038;-82
2021/04/14 03:24:35;;;;;;;25.60;2.92;;;1.50;99.90;;;;;;4992517;28;20011;-82
2021/04/14 03:27:00;;;;;;;26.52;1.92;;;1.40;99.90;;;;;;4993398;28;20438;-82
2021/04/14 03:29:26;;;;;;;6.00;1.60;;;1.30;99.90;;;;;;4993364;28;20026;-81
2021/04/14 03:31:52;;;;;;;12.73;2.70;;;1.30;99.90;;;;;;4993222;28;20093;-81
2021/04/14 03:34:17;;;;;;;6.82;1.60;;;1.30;99.90;;;;;;4992589;28;20030;-82
2021/04/14 03:36:43;;;;;;;15.52;2.67;;;1.30;99.90;;;;;;4977790;28;20031;-81
2021/04/14 03:39:09;;;;;;;12.30;1.63;;;1.30;99.90;;;;;;4972403;28;20046;-81
2021/04/14 03:41:35;;;;;;;16.52;2.03;;;1.30;99.90;;;;;;4988460;28;20030;-81
2021/04/14 03:44:00;;;;;;;18.15;2.45;;;1.30;99.90;;;;;;4991002;28;20062;-80
2021/04/14 03:46:26;;;;;;;19.08;2.25;;;1.30;99.90;;;;;;4993075;28;20046;-82
2021/04/14 03:48:52;;;;;;;20.08;2.05;;;1.30;99.90;;;;;;4992947;28;20073;-81
2021/04/14 03:51:18;;;;;;;11.77;1.77;;;1.30;99.90;;;;;;4992858;28;20037;-81
2021/04/14 03:53:44;;;;;;;16.75;2.17;;;1.30;99.90;;;;;;4991924;28;20034;-81
2021/04/14 03:56:13;;;;;;;12.95;1.95;;;1.30;99.90;;;;;;4988024;28;20569;-81
2021/04/14 03:58:42;;;;;;;21.17;2.42;;;1.40;99.90;;;;;;4973383;28;20033;-81
2021/04/14 04:01:12;;;;;;;19.45;2.15;;;1.50;99.90;;;;;;4973397;28;20044;-81
2021/04/14 04:03:38;;;;;;;46.63;2.97;;;1.60;99.90;;;;;;4973447;28;20039;-81
2021/04/14 04:06:04;;;;;;;10.52;2.38;;;1.60;99.90;;;;;;4973008;28;20094;-82
2021/04/14 04:08:30;;;;;;;16.20;2.25;;;1.60;99.90;;;;;;4973213;28;20046;-81
2021/04/14 04:10:56;;;;;;;9.88;2.45;;;1.50;99.90;;;;;;4984324;28;20189;-81
2021/04/14 04:13:22;;;;;;;16.13;2.50;;;1.50;99.90;;;;;;4992650;28;20029;-82
2021/04/14 04:15:47;;;;;;;12.07;2.15;;;1.50;99.90;;;;;;4991221;28;20022;-82
2021/04/14 04:18:13;;;;;;;8.48;2.35;;;1.50;99.90;;;;;;4992328;28;20112;-82
2021/04/14 04:20:39;;;;;;;10.75;1.77;;;1.50;99.90;;;;;;4990945;28;20030;-81
2021/04/14 04:23:06;;;;;;;12.75;2.08;;;1.60;99.90;;;;;;4991684;28;20608;-81
2021/04/14 04:25:32;;;;;;;6.32;1.83;;;1.70;99.90;;;;;;4991214;28;20022;-82
2021/04/14 04:27:59;;;;;;;17.23;2.50;;;1.70;99.90;;;;;;4992413;28;20077;-82
2021/04/14 04:30:26;;;;;;;12.80;1.98;;;1.80;99.90;;;;;;4990449;28;20121;-81
2021/04/14 04:32:51;;;;;;;24.23;2.42;;;1.80;99.90;;;;;;5007271;28;20057;-81
2021/04/14 04:35:17;;;;;;;17.88;2.20;;;1.80;99.90;;;;;;4991753;28;20031;-82
2021/04/14 04:37:43;;;;;;;14.45;1.83;;;1.90;99.90;;;;;;4992181;28;20077;-82
2021/04/14 04:40:09;;;;;;;7.63;1.90;;;1.90;99.90;;;;;;4990738;28;20054;-81
2021/04/14 04:42:34;;;;;;;13.13;2.03;;;1.90;99.90;;;;;;4992103;28;20033;-82
2021/04/14 04:45:00;;;;;;;14.45;2.97;;;2.00;99.90;;;;;;4991848;28;20026;-81
2021/04/14 04:47:26;;;;;;;9.80;2.50;;;2.10;99.90;;;;;;5007178;28;20080;-82
2021/04/14 04:49:52;;;;;;;18.45;2.13;;;2.20;99.90;;;;;;4990446;28;20394;-81
2021/04/14 04:52:18;;;;;;;21.88;3.08;;;2.20;99.90;;;;;;4972626;28;20526;-81
2021/04/14 04:54:44;;;;;;;8.52;2.50;;;2.30;99.90;;;;;;4972351;28;20034;-81
2021/04/14 04:57:09;;;;;;;13.40;3.13;;;2.30;99.90;;;;;;4972588;28;20035;-81
2021/04/14 04:59:35;;;;;;;14.55;2.15;;;2.30;99.90;;;;;;4986143;28;20061;-81
2021/04/14 05:02:01;;;;;;;14.95;2.40;;;2.30;99.90;;;;;;4991897;28;20066;-81
2021/04/14 05:04:28;;;;;;;17.88;2.40;;;2.30;99.90;;;;;;4991333;28;20026;-81
2021/04/14 05:06:53;;;;;;;7.40;2.10;;;2.30;99.90;;;;;;4991713;28;20049;-82
2021/04/14 05:09:20;;;;;;;14.90;2.83;;;2.20;99.90;;;;;;4990749;28;20483;-82
2021/04/14 05:11:49;;;;;;;13.68;2.97;;;2.20;99.90;;;;;;4973765;28;20030;-81
2021/04/14 05:14:14;;;;;;;22.20;2.80;;;2.20;99.90;;;;;;4971825;28;20169;-81
2021/04/14 05:16:40;;;;;;;31.25;2.78;;;2.20;99.90;;;;;;4982634;28;20547;-82
2021/04/14 05:19:05;;;;;;;14.70;3.20;;;2.20;99.90;;;;;;4991809;28;20113;-82
2021/04/14 05:21:34;;;;;;;15.02;2.15;;;2.20;99.90;;;;;;4992178;28;20478;-81
2021/04/14 05:24:00;;;;;;;24.98;3.45;;;2.30;99.90;;;;;;4991250;28;20558;-81
2021/04/14 05:26:26;;;;;;;14.60;1.88;;;2.30;99.90;;;;;;4987323;28;20070;-81
2021/04/14 05:28:52;;;;;;;11.48;2.00;;;2.40;99.90;;;;;;4976128;28;20479;-81
2021/04/14 05:31:17;;;;;;;16.17;1.98;;;2.40;99.90;;;;;;4975880;28;20038;-81
2021/04/14 05:33:43;;;;;;;11.07;1.60;;;2.40;99.90;;;;;;4975318;28;20443;-81
2021/04/14 05:36:08;;;;;;;15.23;3.08;;;2.40;99.90;;;;;;4976016;28;20034;-81
2021/04/14 05:38:34;;;;;;;12.75;1.90;;;2.40;99.90;;;;;;4975918;28;20033;-81
2021/04/14 05:41:00;;;;;;;15.63;2.00;;;2.50;99.90;;;;;;4986267;28;20486;-81
2021/04/14 05:43:33;;;;;;;38.22;2.75;;;2.50;99.90;;;;;;5010245;28;20049;-81
2021/04/14 05:46:01;;;;;;;11.20;1.90;;;2.50;99.90;;;;;;4989908;28;20057;-81
2021/04/14 05:48:28;;;;;;;13.65;2.35;;;2.60;99.90;;;;;;4974594;28;20031;-82
2021/04/14 05:50:55;;;;;;;24.05;2.38;;;2.70;99.90;;;;;;4975723;28;20460;-82
2021/04/14 05:53:20;;;;;;;6.90;1.98;;;2.70;99.90;;;;;;4975679;28;20027;-81
2021/04/14 05:55:47;;;;;;;15.00;2.15;;;2.80;99.90;;;;;;4975045;28;20042;-82
2021/04/14 05:58:13;;;;;;;15.43;2.70;;;2.90;99.90;;;;;;4974262;28;20031;-81
2021/04/14 06:00:39;;;;;;;19.30;2.03;;;3.00;99.90;;;;;;4975495;28;20101;-81
2021/04/14 06:03:04;;;;;;;19.15;2.67;;;3.20;99.90;;;;;;4974225;28;20467;-82
2021/04/14 06:05:30;;;;;;;21.60;2.72;;;3.20;99.90;;;;;;4975613;28;20023;-82
2021/04/14 06:07:56;;;;;;;20.77;2.35;;;3.30;99.90;;;;;;4975487;28;20085;-81
2021/04/14 06:10:23;;;;;;;14.68;2.83;;;3.50;99.90;;;;;;4975655;28;20034;-81
2021/04/14 06:12:50;;;;;;;24.85;2.38;;;3.60;99.90;;;;;;4975173;28;20093;-81
2021/04/14 06:15:21;;;;;;;20.02;2.05;;;3.70;99.90;;;;;;4974901;28;20022;-82
2021/04/14 06:17:47;;;;;;;13.15;2.22;;;3.80;99.90;;;;;;4993531;28;20033;-80
2021/04/14 06:20:15;;;;;;;26.67;3.25;;;4.00;99.90;;;;;;4990384;28;20426;-80
2021/04/14 06:22:41;;;;;;;18.73;2.85;;;4.10;99.90;;;;;;4994704;28;20020;-80
2021/04/14 06:25:09;;;;;;;15.77;2.33;;;4.20;99.90;;;;;;4989648;28;20027;-81
2021/04/14 06:27:45;;;;;;;21.83;3.75;;;4.30;99.90;;;;;;4991378;28;20490;-80
2021/04/14 06:30:12;;;;;;;14.90;2.00;;;4.40;99.90;;;;;;4991495;28;20116;-81
2021/04/14 06:32:38;;;;;;;22.75;2.83;;;4.50;99.90;;;;;;4989950;28;20022;-82
2021/04/14 06:35:04;;;;;;;17.38;2.53;;;4.70;99.90;;;;;;4989627;28;20030;-81
2021/04/14 06:37:29;;;;;;;20.58;2.50;;;4.80;99.90;;;;;;4990139;28;20117;-81
2021/04/14 06:42:56;;;;;;;;;;;5.00;99.90;;;;;;4983617;28;20113;-81
2021/04/14 06:45:27;;;;;;;19.17;2.05;;;5.20;99.90;;;;;;4990121;28;19972;-81
2021/04/14 06:47:55;;;;;;;20.70;2.28;;;5.30;99.90;;;;;;4990992;28;20043;-80
2021/04/14 06:50:50;;;;;;;16.25;2.88;;;5.30;99.90;;;;;;4989398;28;20037;-81
2021/04/14 06:53:38;;;;;;;21.23;3.00;;;5.40;99.90;;;;;;4989083;28;20442;-81
2021/04/14 06:56:15;;;;;;;23.65;2.45;;;5.60;99.90;;;;;;4988644;28;20042;-82
2021/04/14 06:58:47;;;;;;;26.05;2.25;;;5.80;99.90;;;;;;4990504;28;20476;-80
2021/04/14 07:01:28;;;;;;;13.23;1.90;;;5.80;99.90;;;;;;4989393;28;20110;-81
2021/04/14 07:04:19;;;;;;;21.38;2.90;;;6.00;99.90;;;;;;4989846;28;20026;-80
2021/04/14 07:06:47;;;;;;;17.73;2.10;;;6.10;99.90;;;;;;4990251;28;20022;-81
2021/04/14 07:09:29;;;;;;;16.27;3.05;;;6.20;99.90;;;;;;4989196;28;20495;-81
2021/04/14 07:11:56;;;;;;;27.50;2.40;;;6.20;99.90;;;;;;4990410;28;20093;-83
2021/04/14 07:14:24;;;;;;;25.00;2.45;;;6.30;99.90;;;;;;4989598;28;20026;-82
2021/04/14 07:17:17;;;;;;;15.88;2.15;;;6.30;99.90;;;;;;4988295;28;20031;-83
2021/04/14 07:20:06;;;;;;;19.38;3.20;;;6.50;99.90;;;;;;4992583;28;20034;-82
2021/04/14 07:22:56;;;;;;;14.00;1.88;;;6.70;99.90;;;;;;4992057;28;20503;-82
2021/04/14 07:25:38;;;;;;;20.90;2.03;;;7.00;99.90;;;;;;4991231;28;20065;-82
2021/04/14 07:28:22;;;;;;;13.07;2.00;;;6.90;99.90;;;;;;4993165;28;20503;-83
2021/04/14 07:31:25;;;;;;;14.55;2.25;;;6.90;99.90;;;;;;4993355;28;20027;-82
2021/04/14 07:33:54;;;;;;;16.73;1.77;;;7.00;99.90;;;;;;5007650;28;20029;-82
2021/04/14 07:36:31;;;;;;;15.93;2.97;;;7.00;99.90;;;;;;4981131;28;20484;-82
2021/04/14 07:39:02;;;;;;;16.17;2.05;;;7.10;99.90;;;;;;4987054;28;20041;-82
2021/04/14 07:41:31;;;;;;;14.10;1.60;;;7.20;99.90;;;;;;4992369;28;20030;-82
2021/04/14 07:44:04;;;;;;;22.73;2.15;;;7.30;99.90;;;;;;4992419;28;20054;-83
2021/04/14 07:46:33;;;;;;;10.52;1.33;;;7.10;99.90;;;;;;4991715;28;20387;-82
2021/04/14 07:49:01;;;;;;;19.00;2.05;;;7.30;99.90;;;;;;4991434;28;20042;-83
2021/04/14 07:51:29;;;;;;;14.18;2.53;;;7.40;99.90;;;;;;4992752;28;20062;-84
2021/04/14 07:54:02;;;;;;;14.45;2.17;;;7.60;99.90;;;;;;4991994;28;20026;-83
2021/04/14 07:56:39;;;;;;;17.40;2.15;;;7.40;99.90;;;;;;4991177;28;20450;-81
2021/04/14 07:59:07;;;;;;;21.00;2.22;;;7.60;99.90;;;;;;4991386;28;20204;-84
2021/04/14 08:01:37;;;;;;;14.98;2.72;;;7.90;99.90;;;;;;4992814;28;20363;-85
2021/04/14 08:04:35;;;;;;;7.57;2.05;;;8.30;99.90;;;;;;5006981;28;20621;-85
2021/04/14 08:07:07;;;;;;;14.10;2.10;;;8.40;99.90;;;;;;4984524;28;20045;-85
2021/04/14 08:09:32;;;;;;;9.20;2.00;;;8.40;99.90;;;;;;4990999;28;20041;-85
2021/04/14 08:12:05;;;;;;;12.20;2.30;;;8.20;99.90;;;;;;4988270;28;20487;-85
2021/04/14 08:14:35;;;;;;;16.65;2.15;;;8.50;99.90;;;;;;4972574;28;20023;-83
2021/04/14 08:17:18;;;;;;;19.88;2.25;;;8.30;99.90;;;;;;4999439;28;20419;-83
2021/04/14 08:19:44;;;;;;;11.43;2.25;;;7.90;99.90;;;;;;4982852;28;20125;-84
2021/04/14 08:22:16;;;;;;;18.17;2.20;;;7.30;99.90;;;;;;4990619;28;20061;-81
2021/04/14 08:24:49;;;;;;;14.95;2.00;;;7.20;99.90;;;;;;4991960;28;20084;-84
2021/04/14 08:27:19;;;;;;;21.73;2.88;;;7.30;99.90;;;;;;4992277;28;20023;-84
2021/04/14 08:30:13;;;;;;;10.38;2.20;;;7.40;99.90;;;;;;4991146;28;20034;-84
2021/04/14 08:32:54;;;;;;;19.30;2.20;;;7.40;99.90;;;;;;4990913;28;20117;-84
2021/04/14 08:35:38;;;;;;;13.85;3.45;;;7.40;99.90;;;;;;4990081;28;20077;-85
2021/04/14 08:38:26;;;;;;;12.77;2.55;;;7.20;99.90;;;;;;4992099;28;20028;-85
2021/04/14 08:41:01;;;;;;;29.02;2.78;;;7.00;99.90;;;;;;4990641;28;20028;-85
2021/04/14 08:43:41;;;;;;;13.02;2.55;;;6.70;99.90;;;;;;4991856;28;20026;-85
2021/04/14 08:46:26;;;;;;;9.45;2.22;;;6.80;99.90;;;;;;4992044;28;20073;-83
2021/04/14 08:48:57;;;;;;;20.63;2.22;;;7.60;99.90;;;;;;4992141;28;20699;-83
2021/04/14 08:51:23;;;;;;;21.10;2.70;;;7.80;99.90;;;;;;4992040;28;20026;-81
2021/04/14 08:53:52;;;;;;;8.88;1.52;;;7.50;99.90;;;;;;4988352;28;20026;-83
2021/04/14 08:56:18;;;;;;;11.98;2.28;;;7.30;99.90;;;;;;4990698;28;20045;-83
2021/04/14 08:58:44;;;;;;;16.23;2.22;;;7.30;99.90;;;;;;4998198;28;20043;-86
2021/04/14 09:01:14;;;;;;;20.60;2.33;;;7.40;99.90;;;;;;4972810;28;20051;-86
2021/04/14 09:03:42;;;;;;;7.97;2.17;;;7.30;99.90;;;;;;4977325;28;20045;-85
2021/04/14 09:06:10;;;;;;;4.75;1.90;;;7.30;99.90;;;;;;4993295;28;20026;-87
2021/04/14 09:08:38;;;;;;;10.73;2.03;;;7.40;99.90;;;;;;5011196;28;20065;-87
2021/04/14 09:11:06;;;;;;;10.52;1.92;;;7.40;99.90;;;;;;4996027;28;20029;-87
2021/04/14 09:14:02;;;;;;;8.00;1.58;;;7.60;99.90;;;;;;4991076;28;20121;-86
2021/04/14 09:16:46;;;;;;;16.85;2.28;;;7.60;99.90;;;;;;4986215;28;20053;-85
2021/04/14 09:19:38;;;;;;;15.27;2.55;;;8.00;99.90;;;;;;4990566;28;20829;-84
2021/04/14 09:22:13;;;;;;;8.75;1.33;;;8.40;99.90;;;;;;4991804;28;20085;-87
2021/04/14 09:24:46;;;;;;;10.43;1.90;;;8.70;99.90;;;;;;4991134;28;20030;-87
2021/04/14 09:27:37;;;;;;;8.05;1.55;;;9.00;99.90;;;;;;4991030;28;20037;-87
2021/04/14 09:30:15;;;;;;;16.05;2.40;;;9.50;99.90;;;;;;4989691;28;20041;-86
2021/04/14 09:32:54;;;;;;;25.05;4.00;;;8.90;99.90;;;;;;4991209;28;20030;-85
2021/04/14 09:35:29;;;;;;;10.23;2.47;;;8.50;99.90;;;;;;4990393;28;20494;-85
2021/04/14 09:38:24;;;;;;;5.57;1.38;;;8.10;99.90;;;;;;4992398;28;20065;-86
2021/04/14 09:40:52;;;;;;;13.20;1.63;;;8.00;99.90;;;;;;4992402;28;20026;-86
2021/04/14 09:43:37;;;;;;;18.05;4.00;;;7.90;99.90;;;;;;4988243;28;20543;-85
2021/04/14 09:46:08;;;;;;;17.85;2.28;;;8.00;99.90;;;;;;4983925;28;20050;-86
2021/04/14 09:48:46;;;;;;;10.82;1.80;;;8.40;99.90;;;;;;4992280;28;20045;-86
2021/04/14 09:51:34;;;;;;;15.00;2.28;;;9.10;99.90;;;;;;4990993;28;20068;-84
2021/04/14 09:54:12;;;;;;;15.38;2.55;;;9.50;99.90;;;;;;4990011;28;20514;-84
2021/04/14 09:56:46;;;;;;;17.08;2.22;;;9.50;99.90;;;;;;4991513;28;20026;-85
2021/04/14 09:59:19;;;;;;;17.10;1.98;;;8.90;99.90;;;;;;4990384;28;20034;-85
2021/04/14 10:01:48;;;;;;;12.57;1.40;;;8.30;99.90;;;;;;4990666;28;20111;-86
2021/04/14 10:04:24;;;;;;;19.80;2.55;;;8.30;99.90;;;;;;4986134;28;20396;-84
2021/04/14 10:06:54;;;;;;;9.90;1.88;;;8.10;99.90;;;;;;4992281;28;20284;-85
2021/04/14 10:09:29;;;;;;;10.95;2.00;;;7.90;99.90;;;;;;4992339;28;20030;-83
2021/04/14 10:12:06;;;;;;;10.73;1.58;;;8.20;99.90;;;;;;4983182;28;20037;-84
2021/04/14 10:14:44;;;;;;;6.07;1.35;;;8.80;99.90;;;;;;4987443;28;20046;-84
2021/04/14 10:17:10;;;;;;;11.10;1.95;;;9.60;99.90;;;;;;4990509;28;20161;-87
2021/04/14 10:19:37;;;;;;;6.93;1.30;;;9.70;99.90;;;;;;4991994;28;20038;-86
2021/04/14 10:22:17;;;;;;;14.25;2.50;;;10.10;99.90;;;;;;4990532;28;20105;-84
2021/04/14 10:24:44;;;;;;;7.22;1.58;;;10.50;99.90;;;;;;4990023;28;20403;-84
2021/04/14 10:27:16;;;;;;;7.10;1.65;;;10.50;99.90;;;;;;4991620;28;20030;-84
2021/04/14 10:29:43;;;;;;;11.80;2.20;;;10.40;99.90;;;;;;4990351;28;20126;-84
2021/04/14 10:32:21;;;;;;;9.60;1.40;;;9.90;99.90;;;;;;4990812;28;20261;-85
2021/04/14 10:34:47;;;;;;;8.68;1.92;;;9.80;99.90;;;;;;4986663;28;20022;-84
2021/04/14 10:37:32;;;;;;;15.98;1.73;;;9.70;99.90;;;;;;4991375;28;20029;-85
2021/04/14 10:40:08;;;;;;;11.48;1.60;;;9.40;99.90;;;;;;4991641;28;20025;-86
2021/04/14 10:42:33;;;;;;;16.80;1.88;;;9.30;99.90;;;;;;4991640;28;20070;-85
2021/04/14 10:45:08;;;;;;;13.82;1.92;;;9.10;99.90;;;;;;4988657;28;20064;-85
2021/04/14 10:47:39;;;;;;;19.13;1.73;;;9.00;99.90;;;;;;4991754;28;20062;-85
2021/04/14 10:50:28;;;;;;;10.07;2.03;;;8.90;99.90;;;;;;4990183;28;20030;-84
2021/04/14 10:53:03;;;;;;;7.78;1.90;;;8.90;99.90;;;;;;4984452;28;20034;-85
2021/04/14 10:55:35;;;;;;;7.15;1.50;;;8.60;99.90;;;;;;4989466;28;20034;-86
2021/04/14 10:58:03;;;;;;;3.78;1.30;;;8.60;99.90;;;;;;4987684;28;20065;-84
2021/04/14 11:00:32;;;;;;;16.20;1.73;;;8.70;99.90;;;;;;4985562;28;20022;-86
2021/04/14 11:03:09;;;;;;;7.30;1.73;;;8.90;99.90;;;;;;4990920;28;20023;-82
2021/04/14 11:05:38;;;;;;;15.68;2.53;;;8.70;99.90;;;;;;4987590;28;20022;-82
2021/04/14 11:08:04;;;;;;;13.45;2.25;;;8.70;99.90;;;;;;4990818;28;20030;-81
2021/04/14 11:10:34;;;;;;;11.43;1.45;;;8.60;99.90;;;;;;4990587;28;20026;-81
2021/04/14 11:13:01;;;;;;;11.13;2.15;;;8.80;99.90;;;;;;4986693;28;20034;-80
2021/04/14 11:15:32;;;;;;;13.38;2.45;;;8.80;99.90;;;;;;4986816;28;20027;-81
2021/04/14 11:18:01;;;;;;;5.78;1.65;;;9.10;99.90;;;;;;4990405;28;20034;-80
2021/04/14 11:20:49;;;;;;;12.07;1.60;;;8.80;99.90;;;;;;4988912;28;20029;-81
2021/04/14 11:23:39;;;;;;;10.32;1.90;;;9.00;99.90;;;;;;4989991;28;20405;-82
2021/04/14 11:26:17;;;;;;;8.68;1.65;;;9.10;99.90;;;;;;4982287;28;20038;-82
2021/04/14 11:28:52;;;;;;;11.32;1.65;;;9.20;99.90;;;;;;4988635;28;20814;-81
2021/04/14 11:31:27;;;;;;;15.13;2.50;;;9.00;99.90;;;;;;4988705;28;20065;-82
2021/04/14 11:33:53;;;;;;;12.05;1.58;;;8.90;99.90;;;;;;4986934;28;20026;-80
2021/04/14 11:36:28;;;;;;;7.95;1.77;;;8.80;99.90;;;;;;4989325;28;20034;-81
2021/04/14 11:39:16;;;;;;;9.60;1.67;;;9.10;99.90;;;;;;4990226;28;20026;-82
2021/04/14 11:41:44;;;;;;;7.38;1.92;;;9.00;99.90;;;;;;4988794;28;20037;-83
2021/04/14 11:44:35;;;;;;;14.10;1.90;;;9.10;99.90;;;;;;4989107;28;20502;-84
2021/04/14 11:47:02;;;;;;;10.10;1.90;;;9.00;99.90;;;;;;4990156;28;20026;-82
2021/04/14 11:49:36;;;;;;;6.90;1.52;;;9.20;99.90;;;;;;4988783;28;20378;-82
2021/04/14 11:52:20;;;;;;;15.25;3.08;;;9.20;99.90;;;;;;4982552;28;20030;-84
2021/04/14 11:54:46;;;;;;;;;;;9.10;99.90;;;;;;4988540;28;20441;-83
2021/04/14 11:57:12;;;;;;;7.25;1.67;;;9.50;99.90;;;;;;4989966;28;19913;-82
2021/04/14 11:59:41;;;;;;;10.43;2.15;;;9.30;99.90;;;;;;4987808;28;20042;-82
2021/04/14 12:02:22;;;;;;;18.95;1.95;;;9.10;99.90;;;;;;4987964;28;20049;-81
2021/04/14 12:05:03;;;;;;;7.70;1.42;;;8.80;99.90;;;;;;4987605;28;20022;-82
2021/04/14 12:07:29;;;;;;;13.50;1.58;;;8.70;99.90;;;;;;4989930;28;20109;-83
2021/04/14 12:09:55;;;;;;;7.65;1.40;;;8.60;99.90;;;;;;4988870;28;20560;-81
2021/04/14 12:12:24;;;;;;;8.02;1.17;;;8.50;99.90;;;;;;4991518;28;20026;-82
2021/04/14 12:14:50;;;;;;;9.85;1.80;;;8.30;99.90;;;;;;4987470;28;20034;-81
2021/04/14 12:17:21;;;;;;;11.73;2.05;;;8.40;99.90;;;;;;4987921;28;20026;-81
2021/04/14 12:19:47;;;;;;;7.63;2.42;;;8.30;99.90;;;;;;5002463;28;20049;-85
2021/04/14 12:22:13;;;;;;;10.80;2.95;;;8.30;99.90;;;;;;4986207;28;20124;-83
2021/04/14 12:24:44;;;;;;;7.07;1.40;;;8.30;99.90;;;;;;4983252;28;20630;-80
2021/04/14 12:27:10;;;;;;;5.18;1.70;;;8.40;99.90;;;;;;4983704;28;20411;-83
2021/04/14 12:29:36;;;;;;;8.10;1.60;;;8.60;99.90;;;;;;4983565;28;20026;-84
2021/04/14 12:32:03;;;;;;;13.00;2.00;;;8.80;99.90;;;;;;4987943;28;20466;-83
2021/04/14 12:34:28;;;;;;;7.38;1.58;;;8.80;99.90;;;;;;4984501;28;20038;-77
2021/04/14 12:36:54;;;;;;;9.90;1.65;;;8.80;99.90;;;;;;4981863;28;20034;-81
2021/04/14 12:39:19;;;;;;;12.80;2.78;;;9.10;99.90;;;;;;4987713;28;20459;-81
2021/04/14 12:41:45;;;;;;;11.82;1.88;;;10.10;99.90;;;;;;4987869;28;20026;-81
2021/04/14 12:44:11;;;;;;;8.63;1.60;;;10.90;99.90;;;;;;4987094;28;20049;-81
2021/04/14 12:46:42;;;;;;;13.32;1.60;;;11.40;99.90;;;;;;4986481;28;20085;-80
2021/04/14 12:49:14;;;;;;;13.68;2.13;;;11.60;99.90;;;;;;4987605;28;20041;-81
2021/04/14 12:51:47;;;;;;;7.03;1.83;;;11.40;99.90;;;;;;4989478;28;20030;-80
2021/04/14 12:54:38;;;;;;;10.00;1.97;;;11.40;99.90;;;;;;4994060;28;20699;-80
2021/04/14 12:57:12;;;;;;;6.53;1.83;;;11.00;99.90;;;;;;4983552;28;20068;-81
2021/04/14 12:59:41;;;;;;;11.27;1.85;;;10.60;99.90;;;;;;5008036;28;20022;-81
2021/04/14 13:02:22;;;;;;;8.02;2.15;;;10.40;99.90;;;;;;5006106;28;20027;-80
2021/04/14 13:05:17;;;;;;;7.30;1.73;;;10.60;99.90;;;;;;4986991;28;20022;-81
2021/04/14 13:08:06;;;;;;;12.98;1.65;;;11.10;99.90;;;;;;4997973;28;21272;-80